Weather at Lugano Airport

Public forecast

Using degrees Celsius for public forecast. Weather courtesy of forecast.io.

Current aviation weather report (METAR) for Lugano Airport

Retrieved 2022/06/30 14:20 UTC (0 seconds ago):

LSZA 301420Z VRB03KT 9999 FEW046TCU SCT053 30/19 Q1012 NOSIG

Closest aviation forecast (TAF) to Lugano Airport

Closest forecast is Malpensa International Airport, 23.7 nm (43.9 km) SSW. Retrieved 2022/06/30 12:22 UTC (2 hours ago):

TAF LIMC 301100Z 3012/0118 VRB06KT CAVOK